Time;durP1;ratioP1;P1;durP2;ratioP2;P2;SDS_P1;SDS_P2;PMS_P1;PMS_P2;Temp;Humidity;BMP_temperature;BMP_pressure;BME280_temperature;BME280_humidity;BME280_pressure;Samples;Min_cycle;Max_cycle;Signal;HPM_P1;HPM_P2
2023/04/29 00:01:40;;;;;;;22.63;10.07;;;;;;;;;;5032899;28;20244;-70
2023/04/29 00:04:05;;;;;;;19.03;9.40;;;;;;;;;;5038337;28;20100;-70
2023/04/29 00:06:30;;;;;;;18.13;8.95;;;;;;;;;;5032886;28;20256;-70
2023/04/29 00:08:55;;;;;;;20.00;10.67;;;;;;;;;;5031849;28;20018;-70
2023/04/29 00:11:21;;;;;;;18.30;10.65;;;;;;;;;;5033673;28;20684;-70
2023/04/29 00:13:46;;;;;;;18.70;9.33;;;;;;;;;;5030744;28;20547;-70
2023/04/29 00:16:12;;;;;;;19.20;9.90;;;;;;;;;;5031636;28;20276;-70
2023/04/29 00:18:37;;;;;;;15.20;8.20;;;;;;;;;;5032123;28;20268;-70
2023/04/29 00:21:04;;;;;;;17.17;8.43;;;;;;;;;;5030889;28;20385;-70
2023/04/29 00:23:30;;;;;;;11.82;6.40;;;;;;;;;;5032262;28;20276;-70
2023/04/29 00:25:55;;;;;;;11.27;6.40;;;;;;;;;;5031262;28;20036;-70
2023/04/29 00:28:20;;;;;;;8.68;5.03;;;;;;;;;;5031452;28;20022;-70
2023/04/29 00:30:46;;;;;;;8.07;5.00;;;;;;;;;;5031252;28;20029;-70
2023/04/29 00:33:11;;;;;;;8.53;5.10;;;;;;;;;;5031488;28;20284;-70
2023/04/29 00:35:36;;;;;;;8.73;5.00;;;;;;;;;;5030482;28;20334;-70
2023/04/29 00:38:02;;;;;;;9.07;5.10;;;;;;;;;;5031489;28;20071;-70
2023/04/29 00:40:27;;;;;;;12.50;5.97;;;;;;;;;;5030723;28;20047;-70
2023/04/29 00:42:52;;;;;;;11.98;5.80;;;;;;;;;;5029661;28;20276;-70
2023/04/29 00:45:17;;;;;;;15.25;7.07;;;;;;;;;;5031249;28;20144;-70
2023/04/29 00:47:43;;;;;;;12.70;6.67;;;;;;;;;;5031480;28;20049;-70
2023/04/29 00:50:08;;;;;;;15.37;7.53;;;;;;;;;;5031266;28;20768;-70
2023/04/29 00:52:33;;;;;;;18.48;7.47;;;;;;;;;;5028557;28;20326;-70
2023/04/29 00:54:59;;;;;;;18.17;10.02;;;;;;;;;;5033937;28;20024;-70
2023/04/29 00:57:24;;;;;;;20.70;10.77;;;;;;;;;;5031714;28;20086;-71
2023/04/29 00:59:49;;;;;;;21.77;8.98;;;;;;;;;;5030359;28;20020;-70
2023/04/29 01:02:16;;;;;;;18.33;9.20;;;;;;;;;;5030008;28;20095;-70
2023/04/29 01:04:41;;;;;;;27.15;11.63;;;;;;;;;;5030284;28;20033;-70
2023/04/29 01:07:14;;;;;;;22.10;10.73;;;;;;;;;;5030110;28;20029;-70
2023/04/29 01:09:39;;;;;;;30.95;13.75;;;;;;;;;;5030805;28;20021;-70
2023/04/29 01:12:25;;;;;;;27.07;12.70;;;;;;;;;;5030282;28;20474;-70
2023/04/29 01:14:58;;;;;;;26.73;13.40;;;;;;;;;;5027385;28;20022;-70
2023/04/29 01:17:25;;;;;;;32.28;15.90;;;;;;;;;;5031587;28;20033;-70
2023/04/29 01:19:52;;;;;;;32.88;12.88;;;;;;;;;;5028716;28;20006;-70
2023/04/29 01:22:18;;;;;;;32.08;14.95;;;;;;;;;;5029562;28;20026;-70
2023/04/29 01:24:43;;;;;;;35.72;18.67;;;;;;;;;;5028912;28;20029;-70
2023/04/29 01:27:11;;;;;;;32.17;14.48;;;;;;;;;;5029823;28;20025;-70
2023/04/29 01:29:44;;;;;;;35.80;15.95;;;;;;;;;;5027781;28;20052;-70
2023/04/29 01:32:12;;;;;;;42.53;18.48;;;;;;;;;;5030250;28;20021;-70
2023/04/29 01:34:41;;;;;;;39.17;19.83;;;;;;;;;;5026808;28;20037;-70
2023/04/29 01:37:19;;;;;;;39.47;18.67;;;;;;;;;;5029799;28;20180;-70
2023/04/29 01:39:50;;;;;;;44.80;19.98;;;;;;;;;;5032373;28;20120;-70
2023/04/29 01:42:15;;;;;;;56.15;26.30;;;;;;;;;;5029213;28;20025;-70
2023/04/29 01:44:41;;;;;;;77.85;30.35;;;;;;;;;;5030570;28;20075;-70
2023/04/29 01:47:08;;;;;;;76.82;33.45;;;;;;;;;;5029882;28;20033;-70
2023/04/29 01:49:34;;;;;;;68.57;33.10;;;;;;;;;;5031108;28;20097;-70
2023/04/29 01:51:59;;;;;;;73.75;35.97;;;;;;;;;;5029111;28;20044;-70
2023/04/29 01:54:24;;;;;;;73.67;31.73;;;;;;;;;;5033457;28;20022;-70
2023/04/29 01:56:51;;;;;;;83.10;32.97;;;;;;;;;;5029554;28;20276;-70
2023/04/29 01:59:16;;;;;;;77.30;32.70;;;;;;;;;;5028324;28;20025;-70
2023/04/29 02:01:41;;;;;;;79.18;32.97;;;;;;;;;;5029928;28;20496;-70
2023/04/29 02:04:06;;;;;;;84.68;33.63;;;;;;;;;;5029010;28;20036;-70
2023/04/29 02:06:32;;;;;;;82.28;33.35;;;;;;;;;;5030768;28;20146;-70
2023/04/29 02:08:57;;;;;;;76.60;32.78;;;;;;;;;;5033966;28;20117;-70
2023/04/29 02:11:22;;;;;;;79.80;32.30;;;;;;;;;;5029836;28;20389;-70
2023/04/29 02:13:48;;;;;;;79.93;32.83;;;;;;;;;;5032422;28;20022;-70
2023/04/29 02:16:13;;;;;;;84.00;31.30;;;;;;;;;;5029090;28;20108;-70
2023/04/29 02:18:39;;;;;;;84.85;32.10;;;;;;;;;;5029966;28;20018;-70
2023/04/29 02:21:05;;;;;;;78.78;33.25;;;;;;;;;;5030457;28;20013;-70
2023/04/29 02:23:30;;;;;;;84.00;33.58;;;;;;;;;;5027275;28;20532;-70
2023/04/29 02:25:56;;;;;;;77.57;33.28;;;;;;;;;;5030300;28;20138;-70
2023/04/29 02:28:22;;;;;;;81.63;32.38;;;;;;;;;;5028491;28;20064;-70
2023/04/29 02:30:48;;;;;;;86.68;36.08;;;;;;;;;;5030432;28;20104;-70
2023/04/29 02:33:13;;;;;;;96.25;39.85;;;;;;;;;;5029471;28;20439;-70
2023/04/29 02:35:38;;;;;;;91.53;34.43;;;;;;;;;;5026187;28;20021;-70
2023/04/29 02:38:03;;;;;;;110.80;42.60;;;;;;;;;;5027279;28;20275;-70
2023/04/29 02:40:28;;;;;;;101.70;36.50;;;;;;;;;;5032372;28;20658;-70
2023/04/29 02:42:53;;;;;;;97.90;36.10;;;;;;;;;;5032060;28;20271;-70
2023/04/29 02:45:19;;;;;;;97.53;35.13;;;;;;;;;;5031382;28;20801;-70
2023/04/29 02:47:44;;;;;;;108.70;35.97;;;;;;;;;;5029692;28;20353;-70
2023/04/29 02:50:09;;;;;;;111.47;43.27;;;;;;;;;;5029217;28;20037;-70
2023/04/29 02:52:35;;;;;;;114.30;37.85;;;;;;;;;;5027597;28;20343;-70
2023/04/29 02:55:00;;;;;;;111.53;38.87;;;;;;;;;;5029130;28;20052;-70
2023/04/29 02:57:26;;;;;;;119.60;41.60;;;;;;;;;;5028451;28;20268;-70
2023/04/29 02:59:51;;;;;;;103.63;38.70;;;;;;;;;;5029364;28;20268;-70
2023/04/29 03:02:16;;;;;;;108.00;39.07;;;;;;;;;;5029395;28;20371;-70
2023/04/29 03:04:41;;;;;;;123.97;41.28;;;;;;;;;;5029284;28;20318;-70
2023/04/29 03:07:07;;;;;;;112.30;41.45;;;;;;;;;;5029029;28;20505;-70
2023/04/29 03:09:32;;;;;;;135.43;50.05;;;;;;;;;;5027426;28;20462;-70
2023/04/29 03:11:57;;;;;;;129.32;47.35;;;;;;;;;;5029184;28;20461;-70
2023/04/29 03:14:23;;;;;;;132.73;42.35;;;;;;;;;;5032315;28;20025;-70
2023/04/29 03:16:48;;;;;;;148.57;47.00;;;;;;;;;;5030259;28;20052;-70
2023/04/29 03:19:13;;;;;;;124.07;40.17;;;;;;;;;;5028864;28;20029;-70
2023/04/29 03:21:38;;;;;;;139.73;39.80;;;;;;;;;;5027702;28;20027;-70
2023/04/29 03:24:03;;;;;;;144.70;40.13;;;;;;;;;;5027028;28;20284;-70
2023/04/29 03:26:28;;;;;;;146.27;41.65;;;;;;;;;;5029971;28;20267;-70
2023/04/29 03:28:54;;;;;;;130.10;39.83;;;;;;;;;;5029281;28;20410;-73
2023/04/29 03:31:21;;;;;;;124.47;37.33;;;;;;;;;;5028363;28;20467;-70
2023/04/29 03:33:46;;;;;;;126.53;35.75;;;;;;;;;;5029733;28;20324;-70
2023/04/29 03:36:12;;;;;;;111.85;35.25;;;;;;;;;;5027007;28;20040;-70
2023/04/29 03:38:37;;;;;;;102.07;32.97;;;;;;;;;;5027952;28;20028;-70
2023/04/29 03:41:02;;;;;;;102.50;31.27;;;;;;;;;;5028790;28;20062;-70
2023/04/29 03:43:27;;;;;;;103.25;32.90;;;;;;;;;;5028892;28;20029;-70
2023/04/29 03:45:52;;;;;;;108.77;33.77;;;;;;;;;;5032033;28;20028;-70
2023/04/29 03:48:18;;;;;;;105.93;32.93;;;;;;;;;;5032633;28;20288;-70
2023/04/29 03:50:44;;;;;;;108.20;36.22;;;;;;;;;;5030413;28;20286;-70
2023/04/29 03:53:09;;;;;;;100.05;32.30;;;;;;;;;;5030647;28;20029;-71
2023/04/29 03:55:34;;;;;;;98.95;33.00;;;;;;;;;;5032604;28;20013;-70
2023/04/29 03:58:00;;;;;;;104.30;33.63;;;;;;;;;;5033075;28;20013;-70
2023/04/29 04:00:25;;;;;;;97.00;29.67;;;;;;;;;;5031828;28;20022;-70
2023/04/29 04:02:50;;;;;;;77.90;28.40;;;;;;;;;;5031429;28;20048;-70
2023/04/29 04:05:18;;;;;;;94.18;31.88;;;;;;;;;;5031512;28;20090;-70
2023/04/29 04:07:43;;;;;;;86.65;26.88;;;;;;;;;;5032117;28;20025;-70
2023/04/29 04:10:08;;;;;;;93.00;30.50;;;;;;;;;;5033038;28;20029;-70
2023/04/29 04:12:34;;;;;;;91.97;28.38;;;;;;;;;;5031219;28;20302;-70
2023/04/29 04:14:59;;;;;;;86.07;27.45;;;;;;;;;;5037346;28;20486;-70
2023/04/29 04:17:24;;;;;;;102.10;31.63;;;;;;;;;;5031063;28;20017;-70
2023/04/29 04:19:49;;;;;;;97.17;31.60;;;;;;;;;;5030200;28;20021;-70
2023/04/29 04:22:15;;;;;;;93.30;29.48;;;;;;;;;;5031878;28;20749;-70
2023/04/29 04:24:41;;;;;;;82.53;26.27;;;;;;;;;;5031288;28;20018;-70
2023/04/29 04:27:06;;;;;;;87.50;27.67;;;;;;;;;;5032087;28;20187;-70
2023/04/29 04:29:31;;;;;;;89.78;28.08;;;;;;;;;;5030863;28;20267;-70
2023/04/29 04:31:56;;;;;;;90.37;29.00;;;;;;;;;;5031665;28;20659;-70
2023/04/29 04:34:21;;;;;;;76.75;26.55;;;;;;;;;;5030921;28;20259;-70
2023/04/29 04:36:47;;;;;;;86.30;29.08;;;;;;;;;;5031959;28;20025;-70
2023/04/29 04:39:12;;;;;;;93.43;29.45;;;;;;;;;;5031583;28;20033;-70
2023/04/29 04:41:37;;;;;;;88.32;30.13;;;;;;;;;;5031775;28;20025;-70
2023/04/29 04:44:02;;;;;;;93.68;28.25;;;;;;;;;;5034854;28;20524;-70
2023/04/29 04:46:28;;;;;;;87.88;28.08;;;;;;;;;;5030563;28;20064;-70
2023/04/29 04:48:53;;;;;;;85.73;27.67;;;;;;;;;;5030313;28;20633;-70
2023/04/29 04:51:18;;;;;;;92.05;28.13;;;;;;;;;;5030691;28;20316;-70
2023/04/29 04:53:43;;;;;;;89.13;28.42;;;;;;;;;;5031913;28;20013;-70
2023/04/29 04:56:08;;;;;;;84.68;27.35;;;;;;;;;;5030700;28;20025;-70
2023/04/29 04:58:34;;;;;;;91.22;28.40;;;;;;;;;;5030823;28;20021;-70
2023/04/29 05:00:59;;;;;;;88.57;28.67;;;;;;;;;;5030447;28;20029;-70
2023/04/29 05:03:24;;;;;;;81.05;27.02;;;;;;;;;;5030963;28;20276;-70
2023/04/29 05:05:57;;;;;;;68.73;24.63;;;;;;;;;;5031011;28;20034;-70
2023/04/29 05:08:22;;;;;;;72.78;25.63;;;;;;;;;;5031715;28;20344;-70
2023/04/29 05:10:47;;;;;;;82.35;27.27;;;;;;;;;;5030566;28;20105;-70
2023/04/29 05:13:12;;;;;;;82.85;27.52;;;;;;;;;;5039131;28;20036;-70
2023/04/29 05:15:38;;;;;;;81.43;27.03;;;;;;;;;;5031044;28;20037;-70
2023/04/29 05:18:03;;;;;;;92.55;28.35;;;;;;;;;;5031765;28;20641;-70
2023/04/29 05:20:28;;;;;;;83.17;26.57;;;;;;;;;;5029534;28;20026;-70
2023/04/29 05:22:53;;;;;;;90.23;27.17;;;;;;;;;;5031585;28;20264;-72
2023/04/29 05:25:18;;;;;;;81.90;27.27;;;;;;;;;;5029235;28;20371;-73
2023/04/29 05:27:43;;;;;;;85.80;26.80;;;;;;;;;;5036092;28;20280;-72
2023/04/29 05:30:09;;;;;;;85.40;26.23;;;;;;;;;;5031078;28;20376;-70
2023/04/29 05:32:34;;;;;;;82.65;25.58;;;;;;;;;;5030553;28;20283;-70
2023/04/29 05:34:59;;;;;;;78.10;26.08;;;;;;;;;;5029950;28;20017;-70
2023/04/29 05:37:29;;;;;;;78.32;25.35;;;;;;;;;;5029823;28;20079;-70
2023/04/29 05:39:54;;;;;;;78.07;25.33;;;;;;;;;;5026002;28;20194;-70
2023/04/29 05:42:20;;;;;;;67.80;23.23;;;;;;;;;;5032244;28;20137;-70
2023/04/29 05:44:45;;;;;;;63.53;21.70;;;;;;;;;;5036807;28;20026;-70
2023/04/29 05:47:10;;;;;;;70.65;24.15;;;;;;;;;;5029963;28;20341;-70
2023/04/29 05:49:35;;;;;;;76.88;24.02;;;;;;;;;;5030023;28;20014;-70
2023/04/29 05:52:05;;;;;;;69.82;22.30;;;;;;;;;;5028693;28;20462;-70
2023/04/29 05:54:30;;;;;;;70.43;22.77;;;;;;;;;;5030263;28;20025;-70
2023/04/29 05:56:55;;;;;;;64.93;19.58;;;;;;;;;;5029068;28;20014;-70
2023/04/29 05:59:20;;;;;;;61.50;19.77;;;;;;;;;;5028456;28;20791;-70
2023/04/29 06:01:45;;;;;;;53.30;18.77;;;;;;;;;;5028159;28;20282;-70
2023/04/29 06:04:11;;;;;;;50.47;18.30;;;;;;;;;;5027991;28;20272;-70
2023/04/29 06:06:36;;;;;;;46.63;17.53;;;;;;;;;;5027073;28;20291;-70
2023/04/29 06:09:01;;;;;;;49.50;16.77;;;;;;;;;;5028699;28;20524;-70
2023/04/29 06:11:27;;;;;;;52.10;17.77;;;;;;;;;;5029370;28;20033;-70
2023/04/29 06:13:52;;;;;;;47.78;19.00;;;;;;;;;;5030764;28;20093;-70
2023/04/29 06:16:17;;;;;;;56.38;20.13;;;;;;;;;;5027736;28;20025;-70
2023/04/29 06:18:42;;;;;;;55.17;18.55;;;;;;;;;;5027706;28;20017;-70
2023/04/29 06:21:07;;;;;;;53.93;20.20;;;;;;;;;;5025370;28;20498;-70
2023/04/29 06:23:33;;;;;;;54.17;19.77;;;;;;;;;;5027735;28;20264;-70
2023/04/29 06:25:58;;;;;;;50.60;20.13;;;;;;;;;;5027814;28;20641;-70
2023/04/29 06:28:23;;;;;;;58.67;20.33;;;;;;;;;;5027138;28;20276;-70
2023/04/29 06:30:49;;;;;;;54.88;19.67;;;;;;;;;;5026163;28;20363;-70
2023/04/29 06:33:14;;;;;;;52.47;18.35;;;;;;;;;;5023981;28;20075;-70
2023/04/29 06:35:40;;;;;;;48.10;18.02;;;;;;;;;;5027748;28;20028;-70
2023/04/29 06:38:07;;;;;;;57.30;19.23;;;;;;;;;;5028245;28;20021;-70
2023/04/29 06:40:32;;;;;;;48.90;19.05;;;;;;;;;;5026626;28;20025;-70
2023/04/29 06:42:57;;;;;;;48.03;20.00;;;;;;;;;;5030731;28;20112;-70
2023/04/29 06:45:24;;;;;;;52.75;22.38;;;;;;;;;;5026666;28;20333;-72
2023/04/29 06:47:49;;;;;;;55.30;21.17;;;;;;;;;;5025641;28;20037;-70
2023/04/29 06:50:15;;;;;;;49.40;21.02;;;;;;;;;;5025509;28;20025;-70
2023/04/29 06:52:40;;;;;;;60.50;22.02;;;;;;;;;;5026680;28;21479;-70
2023/04/29 06:55:05;;;;;;;45.00;20.27;;;;;;;;;;5028529;28;20060;-70
2023/04/29 06:57:31;;;;;;;49.88;20.98;;;;;;;;;;5026905;28;20307;-70
2023/04/29 06:59:56;;;;;;;50.50;20.80;;;;;;;;;;5024248;28;20036;-70
2023/04/29 07:02:21;;;;;;;54.73;21.73;;;;;;;;;;5027920;28;20160;-70
2023/04/29 07:04:48;;;;;;;50.92;21.17;;;;;;;;;;5025910;28;20280;-70
2023/04/29 07:07:13;;;;;;;50.88;22.45;;;;;;;;;;5022652;28;20048;-70
2023/04/29 07:09:39;;;;;;;53.30;21.73;;;;;;;;;;5023379;28;20491;-70
2023/04/29 07:12:04;;;;;;;55.13;22.17;;;;;;;;;;5029142;28;20371;-70
2023/04/29 07:14:29;;;;;;;50.25;21.67;;;;;;;;;;5028231;28;20275;-70
2023/04/29 07:16:54;;;;;;;60.05;23.48;;;;;;;;;;5025316;28;20402;-70
2023/04/29 07:19:20;;;;;;;48.43;21.80;;;;;;;;;;5031881;28;20082;-70
2023/04/29 07:21:45;;;;;;;50.20;22.13;;;;;;;;;;5032107;28;20283;-70
2023/04/29 07:24:10;;;;;;;45.03;21.02;;;;;;;;;;5031023;28;20036;-70
2023/04/29 07:26:35;;;;;;;47.23;21.37;;;;;;;;;;5030069;28;20022;-70
2023/04/29 07:29:00;;;;;;;52.30;23.30;;;;;;;;;;5032835;28;20708;-70
2023/04/29 07:31:26;;;;;;;51.97;23.10;;;;;;;;;;5031689;28;20295;-70
2023/04/29 07:33:51;;;;;;;52.95;23.63;;;;;;;;;;5031820;28;20264;-70
2023/04/29 07:36:17;;;;;;;55.53;21.77;;;;;;;;;;5033623;28;20025;-70
2023/04/29 07:38:42;;;;;;;46.85;21.33;;;;;;;;;;5031914;28;20022;-70
2023/04/29 07:41:07;;;;;;;50.03;21.88;;;;;;;;;;5031221;28;20022;-70
2023/04/29 07:43:32;;;;;;;49.70;22.08;;;;;;;;;;5037239;28;20027;-70
2023/04/29 07:45:57;;;;;;;46.63;20.77;;;;;;;;;;5032222;28;20036;-70
2023/04/29 07:48:23;;;;;;;53.88;21.13;;;;;;;;;;5032664;28;20298;-70
2023/04/29 07:50:48;;;;;;;56.03;22.73;;;;;;;;;;5032744;28;20475;-70
2023/04/29 07:53:14;;;;;;;49.05;22.70;;;;;;;;;;5032313;28;20025;-72
2023/04/29 07:55:40;;;;;;;51.08;22.48;;;;;;;;;;5032466;28;20017;-72
2023/04/29 07:58:05;;;;;;;49.28;21.73;;;;;;;;;;5030805;28;20086;-72
2023/04/29 08:00:30;;;;;;;46.92;21.60;;;;;;;;;;5032185;28;20041;-72
2023/04/29 08:02:56;;;;;;;47.42;22.88;;;;;;;;;;5030719;28;20360;-70
2023/04/29 08:05:22;;;;;;;47.25;22.75;;;;;;;;;;5031786;28;20490;-70
2023/04/29 08:07:50;;;;;;;42.10;20.88;;;;;;;;;;5032964;28;20025;-70
2023/04/29 08:10:16;;;;;;;50.03;22.02;;;;;;;;;;5029190;28;20029;-70
2023/04/29 08:12:44;;;;;;;48.88;20.10;;;;;;;;;;5030219;28;20030;-70
2023/04/29 08:15:09;;;;;;;47.72;19.25;;;;;;;;;;5030506;28;20585;-70
2023/04/29 08:17:35;;;;;;;39.55;18.67;;;;;;;;;;5032679;28;20024;-70
2023/04/29 08:20:00;;;;;;;43.42;18.98;;;;;;;;;;5031191;28;20018;-70
2023/04/29 08:22:25;;;;;;;35.87;18.13;;;;;;;;;;5030173;28;20022;-70
2023/04/29 08:24:50;;;;;;;37.53;18.77;;;;;;;;;;5034600;28;20284;-72
2023/04/29 08:27:16;;;;;;;37.20;18.05;;;;;;;;;;5030087;28;20276;-70
2023/04/29 08:29:41;;;;;;;38.42;17.05;;;;;;;;;;5027009;28;20024;-70
2023/04/29 08:32:07;;;;;;;34.88;15.73;;;;;;;;;;5029421;28;20506;-70
2023/04/29 08:34:32;;;;;;;37.97;17.70;;;;;;;;;;5033801;28;20032;-70
2023/04/29 08:36:58;;;;;;;35.80;16.77;;;;;;;;;;5031814;28;20080;-70
2023/04/29 08:39:23;;;;;;;39.92;17.45;;;;;;;;;;5029238;28;20516;-70
2023/04/29 08:41:50;;;;;;;30.60;14.98;;;;;;;;;;5030679;28;20041;-70
2023/04/29 08:44:16;;;;;;;32.00;16.05;;;;;;;;;;5031624;28;20029;-70
2023/04/29 08:46:42;;;;;;;36.95;17.48;;;;;;;;;;5031340;28;20391;-70
2023/04/29 08:49:08;;;;;;;32.47;16.05;;;;;;;;;;5031644;28;20029;-70
2023/04/29 08:51:33;;;;;;;38.53;15.98;;;;;;;;;;5031551;28;20546;-70
2023/04/29 08:53:59;;;;;;;34.78;16.15;;;;;;;;;;5029751;28;20379;-70
2023/04/29 08:56:25;;;;;;;32.90;15.77;;;;;;;;;;5030488;28;20024;-70
2023/04/29 08:58:55;;;;;;;37.30;16.10;;;;;;;;;;5029025;28;20017;-70
2023/04/29 09:01:21;;;;;;;39.05;18.50;;;;;;;;;;5031995;28;20017;-70
2023/04/29 09:03:52;;;;;;;38.38;17.23;;;;;;;;;;5030024;28;20562;-70
2023/04/29 09:06:17;;;;;;;38.35;17.20;;;;;;;;;;5029694;28;20036;-70
2023/04/29 09:08:43;;;;;;;39.97;18.77;;;;;;;;;;5029630;28;20109;-70
2023/04/29 09:11:09;;;;;;;43.42;20.20;;;;;;;;;;5031055;28;20048;-70
2023/04/29 09:13:34;;;;;;;42.40;18.17;;;;;;;;;;5029192;28;20021;-73
2023/04/29 09:15:59;;;;;;;45.90;20.60;;;;;;;;;;5027735;28;20014;-72
2023/04/29 09:18:43;;;;;;;36.20;18.33;;;;;;;;;;5028187;28;20033;-72
2023/04/29 09:21:16;;;;;;;40.95;18.27;;;;;;;;;;5027133;28;20748;-72
2023/04/29 09:23:41;;;;;;;36.08;17.20;;;;;;;;;;5040848;28;20091;-72
2023/04/29 09:26:06;;;;;;;41.28;19.10;;;;;;;;;;5028907;28;20029;-72
2023/04/29 09:28:32;;;;;;;39.60;19.50;;;;;;;;;;5030125;28;20462;-70
2023/04/29 09:30:58;;;;;;;43.17;20.58;;;;;;;;;;5031583;28;20402;-70
2023/04/29 09:33:27;;;;;;;55.80;24.13;;;;;;;;;;5031099;28;20029;-70
2023/04/29 09:35:52;;;;;;;46.22;22.38;;;;;;;;;;5029829;28;20486;-70
2023/04/29 09:38:18;;;;;;;47.03;20.52;;;;;;;;;;5032824;28;20028;-70
2023/04/29 09:40:43;;;;;;;43.85;22.38;;;;;;;;;;5030260;28;20013;-70
2023/04/29 09:43:13;;;;;;;46.83;21.40;;;;;;;;;;5030902;28;20028;-70
2023/04/29 09:45:42;;;;;;;44.67;22.13;;;;;;;;;;5031455;28;20028;-70
2023/04/29 09:48:09;;;;;;;47.25;23.20;;;;;;;;;;5031406;28;20021;-70
2023/04/29 09:50:38;;;;;;;46.38;22.83;;;;;;;;;;5030553;28;20088;-70
2023/04/29 09:53:09;;;;;;;49.45;24.10;;;;;;;;;;5031250;28;20487;-70
2023/04/29 09:55:55;;;;;;;50.60;23.38;;;;;;;;;;5031257;28;20431;-70
2023/04/29 09:58:32;;;;;;;49.92;23.30;;;;;;;;;;5023814;28;20045;-70
2023/04/29 10:00:59;;;;;;;52.00;25.35;;;;;;;;;;5031084;28;20359;-70
2023/04/29 10:03:25;;;;;;;59.33;29.35;;;;;;;;;;5030111;28;20029;-70
2023/04/29 10:05:50;;;;;;;62.70;28.75;;;;;;;;;;5030090;28;20621;-70
2023/04/29 10:08:16;;;;;;;66.30;31.40;;;;;;;;;;5030568;28;20143;-70
2023/04/29 10:10:42;;;;;;;77.45;33.90;;;;;;;;;;5030949;28;20037;-69
2023/04/29 10:13:07;;;;;;;83.85;35.67;;;;;;;;;;5030322;28;20017;-70
2023/04/29 10:15:38;;;;;;;73.22;35.90;;;;;;;;;;5030876;28;20024;-70
2023/04/29 10:18:17;;;;;;;80.75;36.35;;;;;;;;;;5029699;28;20022;-70
2023/04/29 10:20:46;;;;;;;77.50;34.83;;;;;;;;;;5030180;28;20017;-70
2023/04/29 10:23:12;;;;;;;84.07;37.10;;;;;;;;;;5030427;28;20045;-70
2023/04/29 10:25:38;;;;;;;85.53;38.15;;;;;;;;;;5030090;28;20017;-70
2023/04/29 10:28:04;;;;;;;77.72;36.97;;;;;;;;;;5030214;28;20104;-70
2023/04/29 10:30:30;;;;;;;83.03;37.25;;;;;;;;;;5030531;28;20109;-70
2023/04/29 10:32:58;;;;;;;92.95;39.97;;;;;;;;;;5029485;28;20025;-70
2023/04/29 10:35:24;;;;;;;84.65;38.83;;;;;;;;;;5029553;28;20021;-70
2023/04/29 10:37:50;;;;;;;94.70;40.97;;;;;;;;;;5030120;28;20048;-70
2023/04/29 10:40:16;;;;;;;98.57;44.53;;;;;;;;;;5030388;28;20029;-70
2023/04/29 10:42:45;;;;;;;105.30;42.30;;;;;;;;;;5030476;28;20032;-70
2023/04/29 10:45:25;;;;;;;107.88;43.70;;;;;;;;;;5030234;28;20013;-70
2023/04/29 10:48:07;;;;;;;111.13;44.95;;;;;;;;;;5029605;28;20112;-70
2023/04/29 10:50:33;;;;;;;99.80;42.20;;;;;;;;;;5028953;28;20044;-70
2023/04/29 10:53:02;;;;;;;100.65;43.80;;;;;;;;;;5032382;28;20021;-70
2023/04/29 10:55:28;;;;;;;101.10;44.28;;;;;;;;;;5030208;28;20014;-70
2023/04/29 10:57:56;;;;;;;114.30;46.78;;;;;;;;;;5030470;28;20032;-70
2023/04/29 11:00:22;;;;;;;111.53;49.08;;;;;;;;;;5029950;28;20033;-70
2023/04/29 11:02:47;;;;;;;103.50;44.88;;;;;;;;;;5029811;28;20552;-70
2023/04/29 11:05:13;;;;;;;117.13;48.67;;;;;;;;;;5028991;28;20022;-70
2023/04/29 11:07:38;;;;;;;108.55;44.33;;;;;;;;;;5030328;28;20525;-70
2023/04/29 11:10:03;;;;;;;103.60;39.10;;;;;;;;;;5030038;28;20017;-70
2023/04/29 11:12:29;;;;;;;100.55;39.38;;;;;;;;;;5029932;28;20017;-70
2023/04/29 11:15:01;;;;;;;74.00;33.70;;;;;;;;;;5030047;28;20100;-70
2023/04/29 11:17:33;;;;;;;81.88;33.25;;;;;;;;;;5028964;28;20028;-70
2023/04/29 11:19:59;;;;;;;67.80;27.25;;;;;;;;;;5034384;28;20450;-70
2023/04/29 11:22:25;;;;;;;57.63;26.02;;;;;;;;;;5029894;28;20108;-70
2023/04/29 11:25:01;;;;;;;62.05;23.45;;;;;;;;;;5029956;28;20584;-70
2023/04/29 11:27:29;;;;;;;53.00;24.88;;;;;;;;;;5029960;28;20032;-70
2023/04/29 11:29:57;;;;;;;50.47;22.88;;;;;;;;;;5029052;28;20017;-70
2023/04/29 11:32:24;;;;;;;54.13;24.60;;;;;;;;;;5031791;28;20424;-70
2023/04/29 11:34:49;;;;;;;58.38;24.23;;;;;;;;;;5029774;28;20009;-70
2023/04/29 11:37:18;;;;;;;54.80;24.60;;;;;;;;;;5029843;28;20083;-70
2023/04/29 11:39:44;;;;;;;57.22;26.35;;;;;;;;;;5031442;28;20256;-69
2023/04/29 11:42:09;;;;;;;65.10;26.92;;;;;;;;;;5031944;28;20519;-69
2023/04/29 11:44:37;;;;;;;60.95;24.60;;;;;;;;;;5029016;28;20728;-69
2023/04/29 11:47:03;;;;;;;60.33;24.98;;;;;;;;;;5028386;28;20024;-72
2023/04/29 11:49:31;;;;;;;59.40;24.15;;;;;;;;;;5029994;28;20026;-70
2023/04/29 11:51:57;;;;;;;67.80;25.00;;;;;;;;;;5029295;28;20482;-69
2023/04/29 11:54:24;;;;;;;56.38;25.05;;;;;;;;;;5029538;28;20113;-70
2023/04/29 11:56:51;;;;;;;59.97;24.52;;;;;;;;;;5029828;28;20014;-70
2023/04/29 11:59:18;;;;;;;58.63;25.75;;;;;;;;;;5029372;28;20359;-70
2023/04/29 12:01:43;;;;;;;54.20;25.00;;;;;;;;;;5029017;28;20013;-70
2023/04/29 12:04:09;;;;;;;64.10;26.13;;;;;;;;;;5030280;28;20467;-70
2023/04/29 12:06:34;;;;;;;60.08;25.50;;;;;;;;;;5033215;28;20024;-70
2023/04/29 12:09:00;;;;;;;62.60;25.37;;;;;;;;;;5027882;28;20014;-70
2023/04/29 12:11:25;;;;;;;58.53;25.55;;;;;;;;;;5033048;28;20587;-70
2023/04/29 12:13:51;;;;;;;61.95;25.70;;;;;;;;;;5030518;28;20033;-70
2023/04/29 12:16:16;;;;;;;72.28;26.25;;;;;;;;;;5035006;28;20657;-70
2023/04/29 12:18:42;;;;;;;65.18;28.38;;;;;;;;;;5032523;28;20356;-70
2023/04/29 12:21:07;;;;;;;63.70;27.52;;;;;;;;;;5032952;28;20018;-70
2023/04/29 12:23:34;;;;;;;62.78;27.95;;;;;;;;;;5032683;28;20029;-69
2023/04/29 12:25:59;;;;;;;62.55;26.70;;;;;;;;;;5035200;28;20049;-70
2023/04/29 12:28:25;;;;;;;66.75;30.00;;;;;;;;;;5031943;28;20048;-70
2023/04/29 12:30:52;;;;;;;71.75;30.92;;;;;;;;;;5032242;28;20475;-70
2023/04/29 12:33:19;;;;;;;73.25;30.52;;;;;;;;;;5032275;28;20087;-72
2023/04/29 12:35:44;;;;;;;68.97;29.73;;;;;;;;;;5032572;28;20041;-69
2023/04/29 12:38:10;;;;;;;71.30;29.50;;;;;;;;;;5032417;28;20064;-70
2023/04/29 12:40:35;;;;;;;64.00;27.40;;;;;;;;;;5032715;28;20766;-71
2023/04/29 12:43:07;;;;;;;58.22;27.17;;;;;;;;;;5031525;28;20048;-71
2023/04/29 12:45:33;;;;;;;60.63;28.42;;;;;;;;;;5031853;28;20021;-71
2023/04/29 12:47:59;;;;;;;66.20;28.50;;;;;;;;;;5032722;28;20022;-71
2023/04/29 12:50:34;;;;;;;54.83;26.65;;;;;;;;;;5032208;28;20079;-71
2023/04/29 12:53:00;;;;;;;67.10;28.15;;;;;;;;;;5025584;28;20039;-71
2023/04/29 12:55:25;;;;;;;60.72;27.45;;;;;;;;;;5030976;28;20045;-71
2023/04/29 12:57:50;;;;;;;52.65;24.92;;;;;;;;;;5033532;28;20429;-71
2023/04/29 13:00:16;;;;;;;56.25;26.15;;;;;;;;;;5031414;28;20013;-71
2023/04/29 13:02:41;;;;;;;60.30;25.45;;;;;;;;;;5028616;28;20025;-71
2023/04/29 13:05:06;;;;;;;52.40;23.02;;;;;;;;;;5030240;28;20025;-71
2023/04/29 13:07:31;;;;;;;49.63;25.98;;;;;;;;;;5031721;28;20025;-71
2023/04/29 13:09:57;;;;;;;55.77;24.97;;;;;;;;;;5031072;28;20398;-71
2023/04/29 13:12:22;;;;;;;52.95;26.08;;;;;;;;;;5029138;28;20284;-71
2023/04/29 13:14:47;;;;;;;56.57;25.70;;;;;;;;;;5028910;28;20025;-71
2023/04/29 13:17:12;;;;;;;51.55;23.90;;;;;;;;;;5031909;28;20020;-71
2023/04/29 13:19:37;;;;;;;49.42;24.08;;;;;;;;;;5032641;28;20017;-71
2023/04/29 13:22:03;;;;;;;44.23;23.50;;;;;;;;;;5031481;28;20152;-71
2023/04/29 13:24:28;;;;;;;50.00;23.50;;;;;;;;;;5031606;28;20331;-71
2023/04/29 13:26:53;;;;;;;51.50;25.02;;;;;;;;;;5031742;28;20025;-71
2023/04/29 13:29:18;;;;;;;56.07;23.77;;;;;;;;;;5030734;28;20036;-71
2023/04/29 13:31:44;;;;;;;49.63;24.03;;;;;;;;;;5030459;28;20788;-71
2023/04/29 13:34:09;;;;;;;44.65;21.60;;;;;;;;;;5031878;28;20295;-71
2023/04/29 13:36:34;;;;;;;54.90;22.93;;;;;;;;;;5031439;28;20067;-71
2023/04/29 13:39:00;;;;;;;50.07;21.20;;;;;;;;;;5031362;28;20617;-71
2023/04/29 13:41:26;;;;;;;46.42;19.63;;;;;;;;;;5030612;28;20343;-71
2023/04/29 13:43:51;;;;;;;38.40;20.05;;;;;;;;;;5029913;28;20107;-71
2023/04/29 13:46:16;;;;;;;34.43;18.23;;;;;;;;;;5031440;28;20502;-71
2023/04/29 13:48:41;;;;;;;37.80;17.83;;;;;;;;;;5031548;28;20260;-71
2023/04/29 13:51:06;;;;;;;40.85;19.95;;;;;;;;;;5031053;28;20472;-71
2023/04/29 13:53:32;;;;;;;38.53;19.13;;;;;;;;;;5031032;28;20490;-71
2023/04/29 13:55:57;;;;;;;48.00;20.80;;;;;;;;;;5031063;28;20017;-71
2023/04/29 13:58:23;;;;;;;42.70;20.08;;;;;;;;;;5029372;28;20299;-71
2023/04/29 14:00:48;;;;;;;41.50;19.50;;;;;;;;;;5031156;28;20017;-71
2023/04/29 14:03:13;;;;;;;44.92;20.10;;;;;;;;;;5030782;28;20021;-71
2023/04/29 14:05:40;;;;;;;38.63;18.50;;;;;;;;;;5030985;28;20478;-71
2023/04/29 14:08:05;;;;;;;41.67;19.75;;;;;;;;;;5032127;28;20377;-71
2023/04/29 14:10:30;;;;;;;39.83;20.33;;;;;;;;;;5030214;28;20655;-71